Pagrindinis puslapis
METAR-TAF:

METAR-TAF

Oro uostai :

Olborgas, Danija

platuma: 57-06N, ilguma: 009-51E, Aukštis: 3 m

Dabartinis oras

Ataskaita buvo paskelbta 29 minutes, ne 07:25 UTC
Vėjas 9 kt iš Vakarų, svyruoja nuo Vakarų/Pietvakarių ir Šiaurės Vakarų
Temperatūra 15°C
Drėgmė 82%
Slėgis 1014 hPa
Matomumas 10 km arba daugiau
Apsiniaukę ne aukštis 1500 ft

METAR: EKYT 230725Z 28009KT 250V310 9999 OVC015 15/12 Q1014

Laikas: 09:54 (07:54 UTC)

Prognozė

Ataskaita buvo paskelbta 2 valandos ir 52 minutes, ne 05:02 UTC
Prognozė galioja nuo 23 metu 06 UTC su 24 metu 06 UTC
Vėjas 8 kt iš Vakarų
Matomumas 10 km arba daugiau
Su prošvaistėmis ne aukštis 1500 ft
Laikinai
nuo 23 metu 06 UTC su 23 metu 08 UTC
Su prošvaistėmis ne aukštis 1000 ft

TAF: EKYT 230502Z 2306/2406 28008KT 9999 BKN015 TEMPO 2306/2308 BKN010

Orai ataskaitas ir orų prognozės (METAR, TAF).

turimą stotys yra geltonos ir raudonos taškus žemėlapyje.

Perkelti pele per norėdami pamatyti stoties vardą.

Tada spustelėkite, norėdami matyti oro stebėjimo ir prognozės.

Norėdami pakeisti žemėlapį: spustelėkite ant žalios mygtukų su juodo kryžiaus žemyn,; žalią mygtuką su brūkšneliu, jei norite nutolinti; arba žalių rodyklių gretimoms žemėlapius.


METAR-TAF: